Time;durP1;ratioP1;P1;durP2;ratioP2;P2;SDS_P1;SDS_P2;PMS_P1;PMS_P2;Temp;Humidity;BMP_temperature;BMP_pressure;BME280_temperature;BME280_humidity;BME280_pressure;Samples;Min_cycle;Max_cycle;Signal;HPM_P1;HPM_P2
2022/02/13 00:01:15;;;;;;;21.92;9.00;;;8.20;99.90;;;;;;5014410;28;20376;-72
2022/02/13 00:03:40;;;;;;;26.85;10.35;;;8.30;99.90;;;;;;5057441;28;20052;-72
2022/02/13 00:06:06;;;;;;;25.63;10.50;;;8.30;99.90;;;;;;5057565;28;20029;-72
2022/02/13 00:08:32;;;;;;;18.65;9.15;;;8.30;99.90;;;;;;5057286;28;20048;-72
2022/02/13 00:10:58;;;;;;;35.58;8.90;;;8.30;99.90;;;;;;5057536;28;20123;-72
2022/02/13 00:13:24;;;;;;;19.55;8.68;;;8.30;99.30;;;;;;5057378;28;20569;-72
2022/02/13 00:15:49;;;;;;;27.55;9.02;;;8.40;94.10;;;;;;5057183;28;20041;-72
2022/02/13 00:18:15;;;;;;;23.83;8.45;;;8.50;82.30;;;;;;5057016;28;20045;-72
2022/02/13 00:20:41;;;;;;;28.05;9.70;;;8.60;60.40;;;;;;5057612;28;20041;-72
2022/02/13 00:23:08;;;;;;;26.65;12.45;;;8.50;52.40;;;;;;5057345;28;20037;-72
2022/02/13 00:25:34;;;;;;;22.85;10.13;;;8.50;76.10;;;;;;5056951;28;20487;-72
2022/02/13 00:28:00;;;;;;;23.23;11.20;;;8.30;99.90;;;;;;5056891;28;20064;-72
2022/02/13 00:30:26;;;;;;;23.75;11.68;;;8.20;99.90;;;;;;5057190;28;20091;-72
2022/02/13 00:32:54;;;;;;;25.80;12.00;;;8.20;99.90;;;;;;5057088;28;20099;-72
2022/02/13 00:35:20;;;;;;;34.70;12.75;;;8.10;99.90;;;;;;5057046;28;20033;-72
2022/02/13 00:37:45;;;;;;;24.17;12.55;;;8.10;99.90;;;;;;5057169;28;20045;-72
2022/02/13 00:40:12;;;;;;;28.60;9.95;;;8.00;99.90;;;;;;5056973;28;20379;-72
2022/02/13 00:42:38;;;;;;;21.63;10.27;;;8.10;99.90;;;;;;5057016;28;20128;-72
2022/02/13 00:45:05;;;;;;;25.30;9.25;;;8.10;99.90;;;;;;5056924;28;20041;-72
2022/02/13 00:47:31;;;;;;;24.23;9.82;;;8.20;93.60;;;;;;5056750;28;20067;-72
2022/02/13 00:49:57;;;;;;;23.50;9.88;;;8.50;99.70;;;;;;5057371;28;20068;-72
2022/02/13 00:52:23;;;;;;;31.10;9.85;;;8.30;97.20;;;;;;5057335;28;20041;-72
2022/02/13 00:54:48;;;;;;;26.42;9.00;;;8.20;99.90;;;;;;5056750;28;20109;-72
2022/02/13 00:57:14;;;;;;;26.67;8.90;;;8.10;99.90;;;;;;5056740;28;20045;-72
2022/02/13 00:59:40;;;;;;;22.08;9.45;;;8.00;99.90;;;;;;5056295;28;20487;-72
2022/02/13 01:02:06;;;;;;;25.40;9.75;;;8.00;99.90;;;;;;5057180;28;20044;-72
2022/02/13 01:04:32;;;;;;;21.55;8.18;;;8.00;99.90;;;;;;5057038;28;20044;-72
2022/02/13 01:06:57;;;;;;;19.08;8.32;;;8.10;99.90;;;;;;5056770;28;20072;-72
2022/02/13 01:09:23;;;;;;;22.10;7.57;;;8.10;84.20;;;;;;5056482;28;20041;-72
2022/02/13 01:11:49;;;;;;;20.58;8.43;;;8.10;92.40;;;;;;5056191;28;20047;-72
2022/02/13 01:14:15;;;;;;;22.90;8.23;;;8.20;94.40;;;;;;5055959;28;20137;-72
2022/02/13 01:16:41;;;;;;;22.63;8.52;;;8.10;89.90;;;;;;5056051;28;20040;-72
2022/02/13 01:19:07;;;;;;;25.13;7.88;;;8.20;85.40;;;;;;5055635;28;20041;-72
2022/02/13 01:21:33;;;;;;;24.73;8.38;;;8.20;67.30;;;;;;5055704;28;20069;-71
2022/02/13 01:23:59;;;;;;;18.38;7.15;;;8.20;72.10;;;;;;5055429;28;20072;-72
2022/02/13 01:26:25;;;;;;;17.17;8.27;;;8.30;79.20;;;;;;5055566;28;20027;-72
2022/02/13 01:28:51;;;;;;;20.25;7.43;;;8.20;81.10;;;;;;5055369;28;20112;-72
2022/02/13 01:31:18;;;;;;;22.33;8.15;;;8.20;91.80;;;;;;5055475;28;20037;-71
2022/02/13 01:33:43;;;;;;;26.60;7.72;;;8.10;90.20;;;;;;5055814;28;20138;-72
2022/02/13 01:36:09;;;;;;;21.67;8.15;;;8.10;96.00;;;;;;5054975;28;20503;-71
2022/02/13 01:38:35;;;;;;;21.85;8.02;;;8.10;95.60;;;;;;5055507;28;20395;-71
2022/02/13 01:41:02;;;;;;;21.77;8.20;;;8.00;99.90;;;;;;5055577;28;20094;-71
2022/02/13 01:43:28;;;;;;;26.23;7.75;;;8.00;99.90;;;;;;5055562;28;20036;-72
2022/02/13 01:45:54;;;;;;;24.45;8.73;;;7.90;99.90;;;;;;5055408;28;20060;-72
2022/02/13 01:48:20;;;;;;;24.48;8.50;;;7.90;99.90;;;;;;5055332;28;20083;-71
2022/02/13 01:50:49;;;;;;;22.75;8.57;;;8.00;99.90;;;;;;5055476;28;20033;-71
2022/02/13 01:53:15;;;;;;;25.67;8.10;;;8.10;99.90;;;;;;5055522;28;20040;-72
2022/02/13 01:55:44;;;;;;;20.23;7.93;;;8.10;99.90;;;;;;5055027;28;20033;-72
2022/02/13 01:58:09;;;;;;;27.48;7.97;;;8.10;99.90;;;;;;5055089;28;20033;-72
2022/02/13 02:00:35;;;;;;;24.42;8.20;;;8.30;95.10;;;;;;5054951;28;20047;-72
2022/02/13 02:03:01;;;;;;;17.80;8.00;;;8.30;94.00;;;;;;5055333;28;20468;-72
2022/02/13 02:05:27;;;;;;;22.48;8.90;;;8.40;97.20;;;;;;5055326;28;20048;-72
2022/02/13 02:07:53;;;;;;;18.23;7.78;;;8.30;97.50;;;;;;5054994;28;20044;-72
2022/02/13 02:10:24;;;;;;;22.65;7.22;;;8.30;99.10;;;;;;5055186;28;20036;-72
2022/02/13 02:12:50;;;;;;;22.08;8.10;;;8.40;97.50;;;;;;5055052;28;20049;-72
2022/02/13 02:15:16;;;;;;;22.02;7.78;;;8.40;97.50;;;;;;5055188;28;20033;-72
2022/02/13 02:17:42;;;;;;;24.48;8.30;;;8.40;99.90;;;;;;5054830;28;20036;-72
2022/02/13 02:20:08;;;;;;;26.85;7.57;;;8.30;99.90;;;;;;5054814;28;20076;-72
2022/02/13 02:22:35;;;;;;;25.00;8.40;;;8.40;99.90;;;;;;5055338;28;20049;-72
2022/02/13 02:25:01;;;;;;;28.05;7.32;;;8.30;99.90;;;;;;5055400;28;20033;-72
2022/02/13 02:27:26;;;;;;;16.23;7.35;;;8.30;99.90;;;;;;5055053;28;20488;-72
2022/02/13 02:29:52;;;;;;;23.20;7.78;;;8.30;99.90;;;;;;5055562;28;20041;-72
2022/02/13 02:32:18;;;;;;;24.05;7.57;;;8.20;99.90;;;;;;5055063;28;20373;-72
2022/02/13 02:34:44;;;;;;;20.70;7.13;;;8.20;99.90;;;;;;5054913;28;20041;-72
2022/02/13 02:37:10;;;;;;;22.13;7.18;;;8.20;99.90;;;;;;5054860;28;20088;-72
2022/02/13 02:39:37;;;;;;;20.17;8.05;;;8.20;99.90;;;;;;5054512;28;20156;-72
2022/02/13 02:42:04;;;;;;;19.75;7.70;;;8.20;99.90;;;;;;5054333;28;20124;-72
2022/02/13 02:44:32;;;;;;;22.58;7.90;;;8.20;99.90;;;;;;5054253;28;20087;-72
2022/02/13 02:46:58;;;;;;;23.80;7.30;;;8.20;99.90;;;;;;5054178;28;20063;-72
2022/02/13 02:49:23;;;;;;;18.30;7.78;;;8.30;99.90;;;;;;5055121;28;20475;-72
2022/02/13 02:51:49;;;;;;;22.02;7.68;;;8.30;99.90;;;;;;5054155;28;20036;-72
2022/02/13 02:54:15;;;;;;;17.08;7.32;;;8.20;99.90;;;;;;5054424;28;20395;-72
2022/02/13 02:56:41;;;;;;;21.02;7.13;;;8.30;99.60;;;;;;5054528;28;20036;-72
2022/02/13 02:59:07;;;;;;;22.05;7.60;;;8.40;99.90;;;;;;5054288;28;20140;-72
2022/02/13 03:01:33;;;;;;;19.92;7.70;;;8.40;99.90;;;;;;5054287;28;20049;-72
2022/02/13 03:03:59;;;;;;;22.98;7.30;;;8.40;99.90;;;;;;5054409;28;20492;-72
2022/02/13 03:06:24;;;;;;;27.27;10.85;;;8.40;99.90;;;;;;5054019;28;20037;-72
2022/02/13 03:08:50;;;;;;;23.92;8.88;;;8.30;99.90;;;;;;5054040;28;20044;-72
2022/02/13 03:11:16;;;;;;;16.98;7.22;;;8.30;99.90;;;;;;5054145;28;20040;-72
2022/02/13 03:13:42;;;;;;;21.75;7.88;;;8.30;99.90;;;;;;5054384;28;20133;-72
2022/02/13 03:16:08;;;;;;;21.02;8.73;;;8.30;99.90;;;;;;5054526;28;20064;-72
2022/02/13 03:18:34;;;;;;;23.95;7.90;;;8.30;99.90;;;;;;5054419;28;20044;-72
2022/02/13 03:21:00;;;;;;;20.80;7.88;;;8.20;99.90;;;;;;5054764;28;20041;-72
2022/02/13 03:23:26;;;;;;;27.27;7.85;;;8.20;99.90;;;;;;5054647;28;20154;-72
2022/02/13 03:25:52;;;;;;;19.98;7.60;;;8.20;99.90;;;;;;5054134;28;20538;-72
2022/02/13 03:28:19;;;;;;;16.67;7.60;;;8.20;99.90;;;;;;5053820;28;20036;-72
2022/02/13 03:30:45;;;;;;;21.58;7.85;;;8.20;99.90;;;;;;5054086;28;20091;-72
2022/02/13 03:33:12;;;;;;;19.65;7.53;;;8.30;99.90;;;;;;5054658;28;20041;-72
2022/02/13 03:35:38;;;;;;;17.77;6.88;;;8.20;99.90;;;;;;5054026;28;20561;-72
2022/02/13 03:38:05;;;;;;;18.85;6.78;;;8.20;99.90;;;;;;5054351;28;20483;-72
2022/02/13 03:40:33;;;;;;;34.50;13.93;;;8.10;99.90;;;;;;5053873;28;20057;-72
2022/02/13 03:42:59;;;;;;;18.55;8.10;;;8.10;99.90;;;;;;5053863;28;20048;-72
2022/02/13 03:45:25;;;;;;;15.85;6.85;;;8.10;99.90;;;;;;5053919;28;20037;-71
2022/02/13 03:47:51;;;;;;;20.65;6.18;;;8.10;99.90;;;;;;5054080;28;20040;-72
2022/02/13 03:50:17;;;;;;;27.20;8.27;;;8.20;99.90;;;;;;5053630;28;20045;-72
2022/02/13 03:52:43;;;;;;;16.92;6.70;;;8.20;99.90;;;;;;5053506;28;20112;-71
2022/02/13 03:55:11;;;;;;;19.23;7.45;;;8.10;99.90;;;;;;5053539;28;20072;-72
2022/02/13 03:57:37;;;;;;;16.33;6.82;;;8.20;99.90;;;;;;5053728;28;20039;-72
2022/02/13 04:00:04;;;;;;;16.55;7.28;;;8.20;99.90;;;;;;5055714;28;20076;-72
2022/02/13 04:02:30;;;;;;;19.60;7.10;;;8.30;99.30;;;;;;5057118;28;20499;-71
2022/02/13 04:04:57;;;;;;;18.48;6.63;;;8.40;91.50;;;;;;5057080;28;20036;-72
2022/02/13 04:07:23;;;;;;;20.95;6.72;;;9.00;80.40;;;;;;5057791;28;20041;-72
2022/02/13 04:09:49;;;;;;;16.60;6.50;;;8.40;88.40;;;;;;5057278;28;20036;-72
2022/02/13 04:12:15;;;;;;;16.73;6.35;;;8.50;99.60;;;;;;5057397;28;20514;-72
2022/02/13 04:14:41;;;;;;;17.23;5.93;;;7.90;94.90;;;;;;5057541;28;20057;-72
2022/02/13 04:17:06;;;;;;;18.58;6.45;;;8.40;95.80;;;;;;5057673;28;20068;-72
2022/02/13 04:19:32;;;;;;;20.98;6.82;;;8.20;96.50;;;;;;5057048;28;20124;-72
2022/02/13 04:21:58;;;;;;;18.52;6.43;;;8.80;91.40;;;;;;5057102;28;20036;-72
2022/02/13 04:24:24;;;;;;;16.85;6.30;;;8.40;92.60;;;;;;5056701;28;20052;-72
2022/02/13 04:26:50;;;;;;;12.98;6.22;;;8.30;87.30;;;;;;5057381;28;20368;-72
2022/02/13 04:29:16;;;;;;;19.92;7.00;;;8.40;79.90;;;;;;5056957;28;20049;-72
2022/02/13 04:31:42;;;;;;;19.45;6.45;;;8.40;68.60;;;;;;5056847;28;20033;-72
2022/02/13 04:34:08;;;;;;;19.00;6.45;;;8.40;60.80;;;;;;5056380;28;20142;-72
2022/02/13 04:36:35;;;;;;;16.75;6.53;;;8.40;68.00;;;;;;5056855;28;20040;-72
2022/02/13 04:39:02;;;;;;;16.88;6.65;;;9.00;50.50;;;;;;5056767;28;20127;-71
2022/02/13 04:41:28;;;;;;;18.45;6.88;;;8.50;49.80;;;;;;5056458;28;20197;-71
2022/02/13 04:43:54;;;;;;;17.67;6.90;;;8.10;51.70;;;;;;5056359;28;20062;-72
2022/02/13 04:46:19;;;;;;;16.80;6.78;;;8.50;41.20;;;;;;5056666;28;20490;-72
2022/02/13 04:48:45;;;;;;;21.92;7.32;;;8.40;48.10;;;;;;5056679;28;20049;-72
2022/02/13 04:51:11;;;;;;;15.80;7.15;;;8.80;54.80;;;;;;5056529;28;20478;-72
2022/02/13 04:53:37;;;;;;;16.70;5.78;;;8.40;51.60;;;;;;5056547;28;20036;-72
2022/02/13 04:56:04;;;;;;;20.13;6.78;;;8.50;52.30;;;;;;5056749;28;20036;-71
2022/02/13 04:58:32;;;;;;;20.15;6.78;;;8.50;43.90;;;;;;5055794;28;20095;-72
2022/02/13 05:00:57;;;;;;;19.35;6.50;;;8.50;58.40;;;;;;5056123;28;20120;-72
2022/02/13 05:03:24;;;;;;;17.73;6.55;;;8.50;36.50;;;;;;5056465;28;20079;-72
2022/02/13 05:05:51;;;;;;;19.60;6.50;;;8.40;18.10;;;;;;5056489;28;20033;-72
2022/02/13 05:08:18;;;;;;;17.95;5.63;;;7.90;13.00;;;;;;5056159;28;20044;-72
2022/02/13 05:10:44;;;;;;;14.57;5.72;;;9.10;1.00;;;;;;5055233;28;20033;-72
2022/02/13 05:13:10;;;;;;;17.08;5.25;;;8.60;1.00;;;;;;5056330;28;20135;-72
2022/02/13 05:15:36;;;;;;;17.20;6.15;;;8.70;1.00;;;;;;5056088;28;20037;-72
2022/02/13 05:18:02;;;;;;;21.50;6.00;;;8.70;9.00;;;;;;5056641;28;20052;-72
2022/02/13 05:20:28;;;;;;;19.27;5.63;;;8.60;17.20;;;;;;5056658;28;20047;-72
2022/02/13 05:22:54;;;;;;;18.17;5.72;;;8.50;26.80;;;;;;5056436;28;20365;-72
2022/02/13 05:25:19;;;;;;;18.20;6.05;;;8.60;38.70;;;;;;5055899;28;20037;-72
2022/02/13 05:27:45;;;;;;;16.50;5.85;;;8.90;49.40;;;;;;5056157;28;20190;-72
2022/02/13 05:30:11;;;;;;;18.63;6.10;;;8.50;51.00;;;;;;5056342;28;20052;-72
2022/02/13 05:32:37;;;;;;;23.20;6.25;;;8.50;51.10;;;;;;5056014;28;20127;-72
2022/02/13 05:35:03;;;;;;;18.85;6.40;;;8.50;61.10;;;;;;5055722;28;20424;-72
2022/02/13 05:37:32;;;;;;;16.38;6.25;;;8.40;69.60;;;;;;5056018;28;20487;-72
2022/02/13 05:39:59;;;;;;;14.77;5.63;;;8.50;60.00;;;;;;5055733;28;20037;-72
2022/02/13 05:42:26;;;;;;;16.58;5.88;;;8.50;50.00;;;;;;5055955;28;20052;-72
2022/02/13 05:44:52;;;;;;;16.60;5.95;;;8.60;48.30;;;;;;5055767;28;20411;-72
2022/02/13 05:47:19;;;;;;;17.77;5.82;;;8.60;35.00;;;;;;5055787;28;20514;-72
2022/02/13 05:49:45;;;;;;;16.60;6.20;;;8.60;32.40;;;;;;5055455;28;20132;-71
2022/02/13 05:52:10;;;;;;;18.55;5.63;;;8.60;24.60;;;;;;5056224;28;20115;-72
2022/02/13 05:54:36;;;;;;;18.85;6.35;;;8.60;28.40;;;;;;5055616;28;20043;-72
2022/02/13 05:57:03;;;;;;;14.18;6.70;;;8.70;26.50;;;;;;5055106;28;20047;-72
2022/02/13 05:59:28;;;;;;;17.48;6.63;;;8.60;31.60;;;;;;5055503;28;20041;-72
2022/02/13 06:01:55;;;;;;;18.63;7.07;;;8.70;39.60;;;;;;5055460;28;20049;-72
2022/02/13 06:04:22;;;;;;;18.85;6.40;;;8.70;50.80;;;;;;5055476;28;20064;-71
2022/02/13 06:06:53;;;;;;;20.55;6.95;;;8.60;51.20;;;;;;5055130;28;20041;-72
2022/02/13 06:09:20;;;;;;;17.50;7.15;;;8.70;56.10;;;;;;5055433;28;20075;-71
2022/02/13 06:11:46;;;;;;;19.98;6.35;;;8.70;65.60;;;;;;5055733;28;20490;-72
2022/02/13 06:14:12;;;;;;;18.23;7.18;;;8.70;63.20;;;;;;5055188;28;20045;-72
2022/02/13 06:16:38;;;;;;;16.33;6.07;;;8.60;75.60;;;;;;5055391;28;20040;-71
2022/02/13 06:19:05;;;;;;;16.48;6.60;;;8.60;77.90;;;;;;5054813;28;20076;-72
2022/02/13 06:21:31;;;;;;;16.00;6.65;;;8.60;73.60;;;;;;5055292;28;20127;-72
2022/02/13 06:23:57;;;;;;;15.45;6.55;;;8.60;78.50;;;;;;5054569;28;20037;-71
2022/02/13 06:26:24;;;;;;;14.57;6.25;;;8.60;66.20;;;;;;5055050;28;20037;-72
2022/02/13 06:28:51;;;;;;;17.55;6.22;;;8.60;87.00;;;;;;5054624;28;20055;-72
2022/02/13 06:31:16;;;;;;;22.42;6.60;;;8.60;62.80;;;;;;5054426;28;20037;-72
2022/02/13 06:33:42;;;;;;;20.98;5.75;;;8.60;70.00;;;;;;5054571;28;20132;-72
2022/02/13 06:36:09;;;;;;;16.05;6.60;;;8.60;62.60;;;;;;5054713;28;20037;-72
2022/02/13 06:38:35;;;;;;;17.15;6.03;;;8.60;94.80;;;;;;5054639;28;20051;-72
2022/02/13 06:41:01;;;;;;;16.08;6.97;;;8.60;99.90;;;;;;5054292;28;20044;-72
2022/02/13 06:43:27;;;;;;;16.10;6.13;;;8.60;99.00;;;;;;5054676;28;20067;-72
2022/02/13 06:45:53;;;;;;;17.17;6.10;;;8.50;99.90;;;;;;5054267;28;20033;-71
2022/02/13 06:48:19;;;;;;;17.67;5.80;;;8.50;99.90;;;;;;5054466;28;20037;-72
2022/02/13 06:50:45;;;;;;;14.45;6.43;;;9.40;99.90;;;;;;5054417;28;20135;-72
2022/02/13 06:53:11;;;;;;;15.80;6.45;;;8.40;99.90;;;;;;5054436;28;20068;-72
2022/02/13 06:55:37;;;;;;;19.25;6.43;;;8.30;99.90;;;;;;5054357;28;20033;-72
2022/02/13 06:58:03;;;;;;;16.95;6.30;;;8.40;99.90;;;;;;5054053;28;20048;-72
2022/02/13 07:00:29;;;;;;;20.90;7.20;;;8.40;99.90;;;;;;5054571;28;20161;-72
2022/02/13 07:02:54;;;;;;;14.93;5.60;;;8.40;99.90;;;;;;5054539;28;20045;-72
2022/02/13 07:05:23;;;;;;;21.02;7.55;;;8.50;99.90;;;;;;5054299;28;20037;-72
2022/02/13 07:07:49;;;;;;;19.10;7.38;;;8.40;99.90;;;;;;5054179;28;20127;-72
2022/02/13 07:10:15;;;;;;;15.63;6.40;;;8.40;99.90;;;;;;5054256;28;20044;-72
2022/02/13 07:12:41;;;;;;;11.57;6.38;;;8.40;99.90;;;;;;5054198;28;20602;-72
2022/02/13 07:15:07;;;;;;;15.10;6.25;;;8.50;99.40;;;;;;5054260;28;20025;-72
2022/02/13 07:17:35;;;;;;;16.45;7.22;;;8.50;99.90;;;;;;5054108;28;20047;-72
2022/02/13 07:20:01;;;;;;;14.38;6.35;;;8.60;91.10;;;;;;5054672;28;20107;-72
2022/02/13 07:22:27;;;;;;;16.65;6.47;;;8.60;90.70;;;;;;5054496;28;20068;-72
2022/02/13 07:24:53;;;;;;;16.70;6.82;;;8.70;74.30;;;;;;5054131;28;20056;-72
2022/02/13 07:27:18;;;;;;;17.20;8.27;;;8.70;86.80;;;;;;5053868;28;20454;-72
2022/02/13 07:29:44;;;;;;;17.10;6.60;;;8.80;74.30;;;;;;5054133;28;20043;-72
2022/02/13 07:32:10;;;;;;;13.95;7.43;;;8.70;72.80;;;;;;5054361;28;20040;-72
2022/02/13 07:34:37;;;;;;;16.23;7.68;;;8.70;78.70;;;;;;5055442;28;20108;-72
2022/02/13 07:37:03;;;;;;;21.33;7.00;;;8.70;68.20;;;;;;5057821;28;20045;-72
2022/02/13 07:39:32;;;;;;;23.27;8.68;;;8.80;63.50;;;;;;5058426;28;20108;-72
2022/02/13 07:41:59;;;;;;;19.92;8.02;;;8.90;44.40;;;;;;5057718;28;20043;-72
2022/02/13 07:44:26;;;;;;;16.90;7.13;;;9.00;32.50;;;;;;5057811;28;20039;-72
2022/02/13 07:46:52;;;;;;;21.00;6.43;;;9.20;53.30;;;;;;5057776;28;20041;-72
2022/02/13 07:49:18;;;;;;;18.25;6.93;;;9.30;25.50;;;;;;5057495;28;20095;-72
2022/02/13 07:51:44;;;;;;;19.35;5.80;;;9.40;10.50;;;;;;5057381;28;20044;-72
2022/02/13 07:54:11;;;;;;;16.02;5.97;;;9.50;9.40;;;;;;5057420;28;20069;-72
2022/02/13 07:56:37;;;;;;;17.83;6.43;;;9.50;1.00;;;;;;5057632;28;20041;-72
2022/02/13 07:59:03;;;;;;;14.57;5.63;;;9.50;4.60;;;;;;5057320;28;20041;-72
2022/02/13 08:01:29;;;;;;;13.52;5.55;;;9.70;1.00;;;;;;5038964;28;20041;-72
2022/02/13 08:03:55;;;;;;;17.15;5.40;;;9.70;1.00;;;;;;5037594;28;20045;-72
2022/02/13 08:06:22;;;;;;;12.38;5.05;;;9.60;1.00;;;;;;5037492;28;20033;-72
2022/02/13 08:08:49;;;;;;;13.35;5.93;;;9.50;1.00;;;;;;5037176;28;20045;-72
2022/02/13 08:11:17;;;;;;;11.18;4.95;;;9.60;1.00;;;;;;5037392;28;20488;-72
2022/02/13 08:13:43;;;;;;;17.27;5.50;;;9.50;1.00;;;;;;5036916;28;20050;-72
2022/02/13 08:16:09;;;;;;;8.18;4.53;;;9.60;1.00;;;;;;5037632;28;20484;-72
2022/02/13 08:18:39;;;;;;;10.73;4.45;;;9.50;1.00;;;;;;5037252;28;20132;-72
2022/02/13 08:21:08;;;;;;;13.52;6.10;;;9.60;1.00;;;;;;5068237;28;20044;-72
2022/02/13 08:23:34;;;;;;;14.57;7.13;;;9.60;1.00;;;;;;5057572;28;20037;-72
2022/02/13 08:26:01;;;;;;;15.75;4.60;;;9.60;1.00;;;;;;5057112;28;20032;-72
2022/02/13 08:28:29;;;;;;;15.02;6.95;;;9.60;1.00;;;;;;5056832;28;20356;-72
2022/02/13 08:30:55;;;;;;;13.38;5.05;;;9.70;1.00;;;;;;5056754;28;20037;-72
2022/02/13 08:33:21;;;;;;;15.18;5.20;;;9.70;1.00;;;;;;5057188;28;20091;-72
2022/02/13 08:35:47;;;;;;;13.00;5.15;;;9.60;1.00;;;;;;5056553;28;20503;-72
2022/02/13 08:38:13;;;;;;;13.15;5.40;;;9.60;1.00;;;;;;5056645;28;20044;-72
2022/02/13 08:40:39;;;;;;;10.40;5.45;;;9.60;1.00;;;;;;5056295;28;20044;-72
2022/02/13 08:43:06;;;;;;;14.52;4.80;;;9.50;1.00;;;;;;5056348;28;20465;-72
2022/02/13 08:45:34;;;;;;;14.48;5.70;;;9.50;1.00;;;;;;5056572;28;20045;-72
2022/02/13 08:48:00;;;;;;;23.65;5.82;;;9.50;1.00;;;;;;5056114;28;20029;-72
2022/02/13 08:50:26;;;;;;;13.75;6.53;;;9.60;1.00;;;;;;5056383;28;20105;-72
2022/02/13 08:52:52;;;;;;;17.63;6.43;;;9.70;1.00;;;;;;5055601;28;20047;-72
2022/02/13 08:55:19;;;;;;;13.70;5.50;;;9.90;1.00;;;;;;5055879;28;20041;-72
2022/02/13 08:57:46;;;;;;;14.70;5.28;;;9.90;1.00;;;;;;5055235;28;20185;-72
2022/02/13 09:00:14;;;;;;;10.88;5.32;;;9.90;1.00;;;;;;5050054;28;20047;-72
2022/02/13 09:02:40;;;;;;;12.85;5.22;;;9.90;1.00;;;;;;5035433;28;20448;-72
2022/02/13 09:05:08;;;;;;;11.43;5.60;;;9.90;1.00;;;;;;5035753;28;20488;-72
2022/02/13 09:07:35;;;;;;;14.00;7.47;;;10.00;1.00;;;;;;5036408;28;20037;-72
2022/02/13 09:10:09;;;;;;;12.73;4.82;;;10.10;1.00;;;;;;5036467;28;20045;-72
2022/02/13 09:12:35;;;;;;;10.85;4.75;;;10.10;1.00;;;;;;5036048;28;20053;-72
2022/02/13 09:15:01;;;;;;;15.02;5.22;;;10.00;1.00;;;;;;5048155;28;20048;-73
2022/02/13 09:17:27;;;;;;;9.38;5.22;;;10.00;1.00;;;;;;5045710;28;20029;-71
2022/02/13 09:19:53;;;;;;;14.63;5.45;;;10.00;1.00;;;;;;5054916;28;20045;-72
2022/02/13 09:22:18;;;;;;;10.90;4.90;;;10.00;1.00;;;;;;5055229;28;20068;-72
2022/02/13 09:24:44;;;;;;;12.82;5.45;;;10.00;1.00;;;;;;5055407;28;20095;-72
2022/02/13 09:27:10;;;;;;;10.77;5.15;;;10.00;1.00;;;;;;5036042;28;20041;-72
2022/02/13 09:29:37;;;;;;;20.10;5.78;;;10.00;1.00;;;;;;5035175;28;20073;-72
2022/02/13 09:32:03;;;;;;;11.02;5.40;;;9.90;1.00;;;;;;5033898;28;20120;-71
2022/02/13 09:34:30;;;;;;;11.68;5.47;;;9.90;1.00;;;;;;5035021;28;20037;-72
2022/02/13 09:36:56;;;;;;;14.98;7.78;;;9.80;1.00;;;;;;5034885;28;20041;-71
2022/02/13 09:39:23;;;;;;;17.45;5.85;;;9.70;4.80;;;;;;5034458;28;20063;-72
2022/02/13 09:41:50;;;;;;;12.38;5.68;;;9.60;7.30;;;;;;5034005;28;20528;-71
2022/02/13 09:44:17;;;;;;;14.85;6.13;;;9.70;14.80;;;;;;5034786;28;20613;-71
2022/02/13 09:46:44;;;;;;;15.52;5.30;;;9.90;1.00;;;;;;5034131;28;20124;-71
2022/02/13 09:49:11;;;;;;;13.90;5.95;;;10.10;1.00;;;;;;5034236;28;20045;-71
2022/02/13 09:51:37;;;;;;;14.82;5.38;;;10.30;1.00;;;;;;5034826;28;20039;-71
2022/02/13 09:54:05;;;;;;;11.73;5.40;;;10.20;1.00;;;;;;5031948;28;20041;-71
2022/02/13 09:56:31;;;;;;;13.57;5.50;;;11.00;1.00;;;;;;5052497;28;20041;-70
2022/02/13 09:58:57;;;;;;;13.45;5.05;;;10.00;1.00;;;;;;5036975;28;20033;-70
2022/02/13 10:01:47;;;;;;;9.00;5.13;;;10.00;1.00;;;;;;5037075;28;20044;-70
2022/02/13 10:04:12;;;;;;;17.33;5.68;;;10.00;1.00;;;;;;5038167;28;20128;-71
2022/02/13 10:06:40;;;;;;;14.50;5.75;;;10.10;1.00;;;;;;5034476;28;20072;-70
2022/02/13 10:09:07;;;;;;;12.07;5.97;;;10.10;1.00;;;;;;5034584;28;20048;-70
2022/02/13 10:11:36;;;;;;;15.90;5.45;;;10.20;1.00;;;;;;5033470;28;20492;-71
2022/02/13 10:14:12;;;;;;;15.95;5.18;;;10.10;1.00;;;;;;5033927;28;20076;-70
2022/02/13 10:16:46;;;;;;;13.95;6.50;;;10.30;1.00;;;;;;5033579;28;20044;-71
2022/02/13 10:19:19;;;;;;;12.27;5.70;;;10.70;1.00;;;;;;5034297;28;20049;-71
2022/02/13 10:21:50;;;;;;;17.42;5.68;;;10.60;1.00;;;;;;5033613;28;20042;-71
2022/02/13 10:24:18;;;;;;;13.27;5.88;;;10.50;1.00;;;;;;5034062;28;20041;-70
2022/02/13 10:26:46;;;;;;;15.80;6.10;;;10.40;1.00;;;;;;5033679;28;20034;-69
2022/02/13 10:29:12;;;;;;;12.88;5.70;;;10.30;1.00;;;;;;5033944;28;20049;-71
2022/02/13 10:31:42;;;;;;;10.88;5.93;;;10.00;1.00;;;;;;5032441;28;20044;-71
2022/02/13 10:34:11;;;;;;;18.10;6.30;;;9.90;1.00;;;;;;5033575;28;20527;-70
2022/02/13 10:36:43;;;;;;;11.25;5.03;;;9.60;16.80;;;;;;5033851;28;20045;-71
2022/02/13 10:39:24;;;;;;;13.82;5.50;;;9.50;34.00;;;;;;5033126;28;20059;-70
2022/02/13 10:41:52;;;;;;;14.27;5.40;;;9.60;39.80;;;;;;5040989;28;20123;-71
2022/02/13 10:44:25;;;;;;;14.00;5.20;;;9.70;25.60;;;;;;5058212;28;20048;-71
2022/02/13 10:46:54;;;;;;;16.88;6.03;;;9.50;34.00;;;;;;5051609;28;20032;-71
2022/02/13 10:49:21;;;;;;;15.65;4.95;;;9.40;61.80;;;;;;5052642;28;20036;-71
2022/02/13 10:51:48;;;;;;;10.98;4.70;;;9.30;74.60;;;;;;5052732;28;20050;-70
2022/02/13 10:54:14;;;;;;;14.35;5.07;;;9.30;77.20;;;;;;5053510;28;20040;-71
2022/02/13 10:56:40;;;;;;;15.10;5.82;;;9.20;84.00;;;;;;5052638;28;20045;-71
2022/02/13 10:59:11;;;;;;;10.90;5.00;;;9.10;97.40;;;;;;5053418;28;20041;-71
2022/02/13 11:01:38;;;;;;;10.93;5.53;;;9.10;99.90;;;;;;5053169;28;20048;-71
2022/02/13 11:04:04;;;;;;;9.25;5.40;;;9.20;97.90;;;;;;5053283;28;20068;-71
2022/02/13 11:06:36;;;;;;;10.65;5.05;;;9.10;99.90;;;;;;5053699;28;20033;-71
2022/02/13 11:09:17;;;;;;;12.05;5.85;;;9.10;99.90;;;;;;5054004;28;20037;-71
2022/02/13 11:11:45;;;;;;;9.70;4.22;;;9.00;99.90;;;;;;5057297;28;20047;-71
2022/02/13 11:14:40;;;;;;;14.10;4.65;;;9.00;99.90;;;;;;5057524;28;20542;-71
2022/02/13 11:17:07;;;;;;;14.30;5.32;;;9.00;99.90;;;;;;5057316;28;20711;-72
2022/02/13 11:19:40;;;;;;;9.63;4.65;;;9.00;99.90;;;;;;5056775;28;20198;-72
2022/02/13 11:22:07;;;;;;;9.23;3.90;;;9.00;99.90;;;;;;5057731;28;20495;-72
2022/02/13 11:24:37;;;;;;;7.28;3.78;;;9.00;97.00;;;;;;5057746;28;20037;-72
2022/02/13 11:27:04;;;;;;;;;;;9.00;99.90;;;;;;5057251;28;20530;-71
2022/02/13 11:29:51;;;;;;;9.75;3.97;;;8.90;99.90;;;;;;5057434;28;19909;-72
2022/02/13 11:32:39;;;;;;;5.72;3.03;;;9.00;99.90;;;;;;5056625;28;20369;-73
2022/02/13 11:35:07;;;;;;;3.78;2.85;;;8.90;99.90;;;;;;5067878;28;20533;-73
2022/02/13 11:37:50;;;;;;;7.05;2.75;;;8.90;99.90;;;;;;5056559;28;20052;-73
2022/02/13 11:40:34;;;;;;;3.65;2.90;;;8.90;99.90;;;;;;5057176;28;20072;-73
2022/02/13 11:43:01;;;;;;;6.50;2.63;;;9.00;99.90;;;;;;5057177;28;20049;-73
2022/02/13 11:45:40;;;;;;;10.40;2.72;;;9.00;99.90;;;;;;5056525;28;20037;-73
2022/02/13 11:48:37;;;;;;;7.63;3.05;;;8.90;99.90;;;;;;5057134;28;20040;-73
2022/02/13 11:51:05;;;;;;;6.03;3.05;;;8.80;99.90;;;;;;5056725;28;20041;-73
2022/02/13 11:53:34;;;;;;;7.57;2.63;;;8.80;99.90;;;;;;5057054;28;20107;-74
2022/02/13 11:56:19;;;;;;;3.17;2.70;;;8.80;99.90;;;;;;5057099;28;20036;-72
2022/02/13 11:58:45;;;;;;;4.25;3.10;;;8.80;99.90;;;;;;5055884;28;20040;-71
2022/02/13 12:01:35;;;;;;;4.38;2.80;;;8.80;99.90;;;;;;5055386;28;20098;-70
2022/02/13 12:04:08;;;;;;;4.10;2.90;;;8.70;99.90;;;;;;5056727;28;20036;-71
2022/02/13 12:06:35;;;;;;;6.47;2.70;;;9.20;99.90;;;;;;5056981;28;20266;-73
2022/02/13 12:09:07;;;;;;;6.03;2.58;;;8.80;99.90;;;;;;5056301;28;20205;-71
2022/02/13 12:11:42;;;;;;;5.55;2.60;;;8.70;99.90;;;;;;5056111;28;20041;-70
2022/02/13 12:14:25;;;;;;;5.25;3.03;;;8.70;99.90;;;;;;5056740;28;20056;-71
2022/02/13 12:16:59;;;;;;;9.27;5.47;;;8.80;99.90;;;;;;5055861;28;20037;-71
2022/02/13 12:19:45;;;;;;;9.65;3.53;;;8.80;99.90;;;;;;5056764;28;20258;-71
2022/02/13 12:22:16;;;;;;;8.18;3.78;;;8.90;99.90;;;;;;5056801;28;20037;-70
2022/02/13 12:24:44;;;;;;;8.60;3.47;;;9.00;99.90;;;;;;5056337;28;20076;-71
2022/02/13 12:27:10;;;;;;;9.18;3.17;;;8.70;99.90;;;;;;5056441;28;20045;-71
2022/02/13 12:29:49;;;;;;;9.68;4.40;;;8.70;99.90;;;;;;5056255;28;20044;-73
2022/02/13 12:32:15;;;;;;;7.05;3.53;;;8.80;99.90;;;;;;5055647;28;20037;-71
2022/02/13 12:35:02;;;;;;;5.13;3.65;;;8.80;99.90;;;;;;5056355;28;20048;-71
2022/02/13 12:37:39;;;;;;;7.95;3.30;;;8.80;99.90;;;;;;5056685;28;20090;-71
2022/02/13 12:40:07;;;;;;;6.53;3.67;;;9.20;99.90;;;;;;5055774;28;20041;-71
2022/02/13 12:42:35;;;;;;;6.82;3.30;;;8.90;99.90;;;;;;5056673;28;20053;-71
2022/02/13 12:45:08;;;;;;;6.55;3.03;;;8.90;99.90;;;;;;5055877;28;20523;-71
2022/02/13 12:47:36;;;;;;;7.90;3.67;;;8.80;99.90;;;;;;5055788;28;20124;-71
2022/02/13 12:50:11;;;;;;;10.75;3.38;;;8.70;99.90;;;;;;5056236;28;20047;-71
2022/02/13 12:52:37;;;;;;;9.73;3.63;;;8.80;99.90;;;;;;5055562;28;20033;-73